Galesburg, IL (61401)

8:45 AM CST on February 14, 2016 (GMT -0600)
N9VPV | | Change Station
CLOSE
Current Station
Personal Weather Station
Location: Galesburg, IL
Elevation: 777 ft
Nearby Weather Stations
Active Advisory: Winter Weather Advisory

Elev 777 ft 40.95 °N, 90.39 °W | Updated 50 seconds ago

Light Snow
Light Snow
15.6 °F
Feels Like 9 °F
N
4.0
Wind Variable Wind from ESE
Gusts 4.0 mph

Today
High -- | Low -- °F
--% Chance of Precip.
Yesterday
High -- | Low -- °F
Precip. -- in
Pressure 30.17 in
Visibility 0.8 miles
Clouds Overcast 1400 ft
Windchill 9 °F
Dew Point 12 °F
Humidity 87%
Rainfall 0.00 in
Snow Depth Not available.
6:57 AM 5:34 PM
Waxing Crescent, 42% visible
METAR KGBG 141435Z AUTO 13010G15KT 3/4SM -SN OVC014 M09/M11 A3017 RMK AO2 T10891107
Pressure 30.17 in
Visibility 0.8 miles
Clouds Overcast 1400 ft
Windchill 9 °F
Dew Point 12 °F
Humidity 87%
Rainfall 0.00 in
Snow Depth Not available.
6:57 AM 5:34 PM
Waxing Crescent, 42% visible
METAR KGBG 141435Z AUTO 13010G15KT 3/4SM -SN OVC014 M09/M11 A3017 RMK AO2 T10891107

10-Day Weather Forecast

Almanac

Astronomy

Feb. 14, 2016 Rise Set
Actual Time
Civil Twilight
Nautical Twilight
Astronomical Twilight
Moon
Length of Visible Light
Length of Day
Tomorrow will be .
, % of the Moon is Illuminated

Today's Extremes

State Highs State Lows

Community

WunderPhotos

Upload Photos

1,892,781 photos uploaded!

WunderBlog® & News

Nearby

Air Quality

  Air Quality AQ Index Pollutant
Not available.

Snow Depth

Station Depth Elevation

Earthquake Activity

City Distance Mag. Time & Date
Minimum magnitude displayed is 2.5.

Coastal Water Temperatures

Place Temperature

Stations

Nearby Weather Stations

Station Location Temp. Windchill Dew Point Humidity Wind Precip. Elev Updated Type
                   

Watches & Warnings

Winter Weather Advisory
Issued: 3:35 AM CST Feb. 14, 2016 – National Weather Service

... Winter Weather Advisory remains in effect until 6 PM CST this
evening...

* timing... light to moderate snow will continue across central and
southeast Illinois today. The heaviest snow will occur from late
morning through mid-afternoon... before the snow tapers off from
west to east late in the day.

* Snow accumulations... 2 to 3 inches of snow will fall across
most of the area... with higher amounts of 4 to 5 inches focused
along and northwest of the Illinois River.

* Wind... southeast winds of 10 to 15 mph are expected... with gusts
of 20 to 25 mph during the afternoon.

* Main impact... snow-covered roads will create hazardous travel
conditions. Brisk southeasterly winds will cause some blowing
and drifting snow as well.

Precautionary/preparedness actions...

A Winter Weather Advisory for snow means that periods of snow
will cause primarily travel difficulties. Be prepared for snow
covered roads and limited visibilities... and use caution while
driving.



Barnes